createdAt,value
2019-03-30T00:00:02.366Z,0
2019-03-30T00:05:02.989Z,0
2019-03-30T00:10:02.493Z,0
2019-03-30T00:15:02.839Z,0
2019-03-30T00:20:03.277Z,0
2019-03-30T00:25:02.686Z,0
2019-03-30T00:30:03.141Z,0
2019-03-30T00:35:02.483Z,0
2019-03-30T00:40:03.000Z,0
2019-03-30T00:45:02.425Z,0
2019-03-30T00:50:02.855Z,0
2019-03-30T00:55:03.199Z,0
2019-03-30T01:00:02.520Z,0
2019-03-30T01:05:02.552Z,0
2019-03-30T01:10:02.990Z,0
2019-03-30T01:15:02.321Z,0
2019-03-30T01:20:03.737Z,0
2019-03-30T01:25:03.221Z,0
2019-03-30T01:30:02.617Z,0
2019-03-30T01:35:03.086Z,0
2019-03-30T01:40:02.568Z,0
2019-03-30T01:45:02.918Z,0
2019-03-30T01:50:16.530Z,0
2019-03-30T01:55:03.290Z,0
2019-03-30T02:00:02.623Z,0
2019-03-30T02:05:03.058Z,0
2019-03-30T02:10:02.474Z,0
2019-03-30T02:15:02.841Z,0
2019-03-30T02:20:03.178Z,0
2019-03-30T02:25:02.564Z,0
2019-03-30T02:30:02.917Z,0
2019-03-30T02:35:03.363Z,0
2019-03-30T02:40:02.771Z,0
2019-03-30T02:45:03.123Z,0
2019-03-30T02:50:02.535Z,0
2019-03-30T02:55:02.887Z,0
2019-03-30T03:00:03.331Z,0
2019-03-30T03:05:02.754Z,0
2019-03-30T03:10:03.155Z,0
2019-03-30T03:15:02.572Z,0
2019-03-30T03:20:02.948Z,0
2019-03-30T03:25:03.291Z,0
2019-03-30T03:30:02.698Z,0
2019-03-30T03:35:03.195Z,0
2019-03-30T03:40:02.661Z,0
2019-03-30T03:45:03.011Z,0
2019-03-30T03:50:02.438Z,0
2019-03-30T03:55:02.885Z,0
2019-03-30T04:00:03.462Z,0
2019-03-30T04:05:02.852Z,0
2019-03-30T04:10:03.284Z,0
2019-03-30T04:15:02.713Z,0
2019-03-30T04:20:03.057Z,0
2019-03-30T04:25:02.464Z,0
2019-03-30T04:30:02.800Z,0
2019-03-30T04:35:03.147Z,0
2019-03-30T04:40:02.553Z,0
2019-03-30T04:45:02.898Z,0
2019-03-30T04:50:03.257Z,0
2019-03-30T04:55:02.659Z,0
2019-03-30T05:00:03.118Z,0
2019-03-30T05:05:02.530Z,0
2019-03-30T05:10:02.966Z,0
2019-03-30T05:15:03.318Z,0
2019-03-30T05:20:02.746Z,0
2019-03-30T05:25:03.189Z,0
2019-03-30T05:30:02.619Z,0
2019-03-30T05:35:03.037Z,0
2019-03-30T05:40:02.427Z,0
2019-03-30T05:45:02.810Z,0
2019-03-30T05:50:03.256Z,0
2019-03-30T05:55:02.660Z,0
2019-03-30T06:00:03.018Z,0
2019-03-30T06:05:03.731Z,0
2019-03-30T06:10:03.258Z,0
2019-03-30T06:15:02.689Z,0
2019-03-30T06:20:03.132Z,0
2019-03-30T06:25:02.544Z,0
2019-03-30T06:30:02.938Z,0
2019-03-30T06:35:03.338Z,0
2019-03-30T06:40:02.758Z,0
2019-03-30T06:45:03.199Z,0
2019-03-30T06:50:02.614Z,0
2019-03-30T06:55:02.957Z,0
2019-03-30T07:00:03.403Z,0
2019-03-30T07:05:02.718Z,0
2019-03-30T07:10:03.177Z,0
2019-03-30T07:15:02.579Z,0
2019-03-30T07:20:02.919Z,0
2019-03-30T07:25:03.262Z,0
2019-03-30T07:30:02.882Z,1
2019-03-30T07:35:03.331Z,0
2019-03-30T07:40:02.745Z,1
2019-03-30T07:45:03.100Z,3
2019-03-30T07:50:02.518Z,1
2019-03-30T07:55:02.956Z,3
2019-03-30T08:00:02.474Z,3
2019-03-30T08:05:02.847Z,1
2019-03-30T08:10:03.298Z,3
2019-03-30T08:15:02.712Z,3
2019-03-30T08:20:03.160Z,2
2019-03-30T08:25:02.583Z,0
2019-03-30T08:30:03.012Z,1
2019-03-30T08:35:02.410Z,1
2019-03-30T08:40:02.891Z,0
2019-03-30T08:45:03.297Z,0
2019-03-30T08:50:02.745Z,0
2019-03-30T08:55:03.187Z,2
2019-03-30T09:00:02.608Z,1
2019-03-30T09:05:03.028Z,2
2019-03-30T09:10:02.422Z,2
2019-03-30T09:15:02.782Z,2
2019-03-30T09:20:03.119Z,1
2019-03-30T09:25:02.537Z,3
2019-03-30T09:30:03.299Z,2
2019-03-30T09:35:01.897Z,4
2019-03-30T09:40:03.387Z,1
2019-03-30T09:45:02.768Z,0
2019-03-30T09:50:03.170Z,2
2019-03-30T09:55:02.530Z,2
2019-03-30T10:00:02.976Z,0
2019-03-30T10:05:02.386Z,0
2019-03-30T10:10:02.838Z,1
2019-03-30T10:15:03.314Z,2
2019-03-30T10:20:04.594Z,4
2019-03-30T10:25:02.399Z,4
2019-03-30T10:30:02.767Z,4
2019-03-30T10:35:03.250Z,2
2019-03-30T10:40:02.733Z,0
2019-03-30T10:45:03.068Z,2
2019-03-30T10:50:02.494Z,2
2019-03-30T10:55:02.935Z,2
2019-03-30T11:00:03.303Z,3
2019-03-30T11:05:02.698Z,1
2019-03-30T11:10:03.132Z,0
2019-03-30T11:15:02.544Z,7
2019-03-30T11:20:02.989Z,2
2019-03-30T11:25:07.692Z,3
2019-03-30T11:30:02.862Z,3
2019-03-30T11:35:03.331Z,0
2019-03-30T11:40:02.724Z,2
2019-03-30T11:45:03.157Z,5
2019-03-30T11:50:02.584Z,0
2019-03-30T11:55:03.032Z,0
2019-03-30T12:00:02.438Z,0
2019-03-30T12:05:02.788Z,0
2019-03-30T12:10:03.217Z,4
2019-03-30T12:15:02.553Z,4
2019-03-30T12:20:02.978Z,4
2019-03-30T12:25:02.435Z,3
2019-03-30T12:30:02.792Z,3
2019-03-30T12:35:03.186Z,2
2019-03-30T12:40:02.613Z,1
2019-03-30T12:45:02.944Z,0
2019-03-30T12:50:03.289Z,2
2019-03-30T12:55:02.746Z,5
2019-03-30T13:00:03.151Z,3
2019-03-30T13:05:02.558Z,3
2019-03-30T13:10:03.011Z,0
2019-03-30T13:15:02.438Z,2
2019-03-30T13:20:02.875Z,2
2019-03-30T13:25:03.319Z,0
2019-03-30T13:30:02.742Z,4
2019-03-30T13:35:03.172Z,2
2019-03-30T13:40:02.588Z,6
2019-03-30T13:45:03.476Z,5
2019-03-30T13:50:02.379Z,6
2019-03-30T13:55:02.800Z,0
2019-03-30T14:00:03.245Z,4
2019-03-30T14:05:02.591Z,4
2019-03-30T14:10:03.092Z,2
2019-03-30T14:15:02.510Z,3
2019-03-30T14:20:02.862Z,7
2019-03-30T14:25:03.302Z,7
2019-03-30T14:30:01.831Z,4
2019-03-30T14:35:03.256Z,3
2019-03-30T14:40:02.684Z,3
2019-03-30T14:45:03.023Z,4
2019-03-30T14:50:02.450Z,7
2019-03-30T14:55:02.788Z,7
2019-03-30T15:00:03.124Z,4
2019-03-30T15:05:02.534Z,4
2019-03-30T15:10:02.980Z,2
2019-03-30T15:15:02.402Z,2
2019-03-30T15:20:02.853Z,3
2019-03-30T15:25:03.303Z,3
2019-03-30T15:30:02.613Z,3
2019-03-30T15:35:02.951Z,7
2019-03-30T15:40:02.359Z,5
2019-03-30T15:45:02.915Z,7
2019-03-30T15:50:03.356Z,5
2019-03-30T15:55:02.785Z,3
2019-03-30T16:00:03.120Z,4
2019-03-30T16:05:02.542Z,3
2019-03-30T16:10:02.970Z,3
2019-03-30T16:15:02.391Z,2
2019-03-30T16:20:02.738Z,3
2019-03-30T16:25:03.090Z,2
2019-03-30T16:30:02.493Z,3
2019-03-30T16:35:02.842Z,2
2019-03-30T16:40:03.231Z,3
2019-03-30T16:45:02.552Z,3
2019-03-30T16:50:02.883Z,2
2019-03-30T16:55:03.274Z,1
2019-03-30T17:00:01.855Z,3
2019-03-30T17:05:03.240Z,1
2019-03-30T17:10:02.764Z,2
2019-03-30T17:15:03.204Z,0
2019-03-30T17:20:02.619Z,0
2019-03-30T17:25:03.072Z,1
2019-03-30T17:30:02.481Z,0
2019-03-30T17:35:02.825Z,0
2019-03-30T17:40:03.289Z,0
2019-03-30T17:45:02.684Z,0
2019-03-30T17:50:03.008Z,0
2019-03-30T17:55:02.447Z,0
2019-03-30T18:00:02.802Z,0
2019-03-30T18:05:03.243Z,0
2019-03-30T18:10:03.798Z,0
2019-03-30T18:15:02.385Z,0
2019-03-30T18:20:02.830Z,0
2019-03-30T18:25:03.267Z,0
2019-03-30T18:30:02.688Z,0
2019-03-30T18:35:03.127Z,0
2019-03-30T18:40:02.539Z,0
2019-03-30T18:45:02.892Z,0
2019-03-30T18:50:03.344Z,0
2019-03-30T18:55:02.755Z,0
2019-03-30T19:00:03.199Z,0
2019-03-30T19:05:02.611Z,0
2019-03-30T19:10:03.057Z,0
2019-03-30T19:15:02.484Z,0
2019-03-30T19:20:02.914Z,0
2019-03-30T19:25:03.257Z,0
2019-03-30T19:30:02.681Z,0
2019-03-30T19:35:02.325Z,0
2019-03-30T19:40:02.752Z,0
2019-03-30T19:45:03.186Z,0
2019-03-30T19:50:02.524Z,0
2019-03-30T19:55:02.962Z,0
2019-03-30T20:00:03.392Z,0
2019-03-30T20:05:02.813Z,0
2019-03-30T20:10:03.208Z,0
2019-03-30T20:15:02.561Z,0
2019-03-30T20:20:02.912Z,0
2019-03-30T20:25:03.357Z,0
2019-03-30T20:30:03.079Z,0
2019-03-30T20:35:02.512Z,0
2019-03-30T20:40:02.939Z,0
2019-03-30T20:45:03.288Z,0
2019-03-30T20:50:02.631Z,0
2019-03-30T20:55:03.045Z,0
2019-03-30T21:00:02.459Z,0
2019-03-30T21:05:02.810Z,0
2019-03-30T21:10:03.248Z,0
2019-03-30T21:15:02.656Z,0
2019-03-30T21:20:03.114Z,0
2019-03-30T21:25:02.528Z,0
2019-03-30T21:30:02.972Z,0
2019-03-30T21:35:02.381Z,0
2019-03-30T21:40:02.844Z,0
2019-03-30T21:45:03.292Z,0
2019-03-30T21:50:02.695Z,0
2019-03-30T21:55:03.145Z,0
2019-03-30T22:00:09.895Z,0
2019-03-30T22:05:02.500Z,0
2019-03-30T22:10:02.930Z,0
2019-03-30T22:15:03.283Z,1
2019-03-30T22:20:02.692Z,0
2019-03-30T22:25:03.144Z,0
2019-03-30T22:30:02.548Z,1
2019-03-30T22:35:02.900Z,0
2019-03-30T22:40:03.331Z,0
2019-03-30T22:45:02.756Z,0
2019-03-30T22:50:03.100Z,0
2019-03-30T22:55:02.527Z,0
2019-03-30T23:00:02.877Z,0
2019-03-30T23:05:03.312Z,0
2019-03-30T23:10:02.828Z,0
2019-03-30T23:15:03.271Z,0
2019-03-30T23:20:02.680Z,0
2019-03-30T23:25:03.141Z,0
2019-03-30T23:30:02.546Z,0
2019-03-30T23:35:02.899Z,0
2019-03-30T23:40:03.339Z,0
2019-03-30T23:45:02.759Z,0
2019-03-30T23:50:03.194Z,0
2019-03-30T23:55:02.622Z,0
